Handytankers Miracle — V7OM4 — position and weather

sailwx.info

Track history (hours):
 
Tides and Currents Weather Stations Pressure Air Temp Water Temp Dewpoint Dewpoint Depression Visibility Wind Speed Wind Dir Waves Ship Positions

Handytankers Miracle

Last reported at 2015-Sep-02 02:05 UTC. Time now 2015-Sep-02 23:53 UTC.
Position N 23°44' E 118°26'.

Length 183 m; draft 7.7 m.

Type: Tanker. MMSI: 538003114.

Date/timePositionNaut miles runAvg speedWind from/ knotsBaromVisibWave heightAir tempDewpointWater temp
2015-Sep-02 02:05N 23°44' E 118°26'1912.0
2015-Sep-02 00:31N 23°57' E 118°40'1712.2
2015-Sep-01 23:06N 24°10' E 118°54'913.0
2015-Sep-01 22:23N 24°16' E 119°01'3013.1
2015-Sep-01 20:07N 24°37' E 119°24'813.0
2015-Sep-01 19:30N 24°43' E 119°31'  
2015-Aug-27 04:14N 35°05' E 119°24'6 8.4
2015-Aug-27 03:33N 35°03' E 119°31'12 0.3
2015-Aug-25 05:28N 35°05' E 119°45'12112.2
2015-Aug-24 19:33N 36°01' E 121°57'1312.5
2015-Aug-24 18:31N 36°10' E 122°08'1212.4
2015-Aug-24 17:32N 36°19' E 122°20'2411.9
2015-Aug-24 15:33N 36°35' E 122°41'1311.7
2015-Aug-24 14:27N 36°45' E 122°51'1211.7
2015-Aug-24 13:23N 36°56' E 122°58'5310.7
2015-Aug-24 08:28N 37°43' E 122°29'1112.0
2015-Aug-24 07:33N 37°45' E 122°15'1211.7
2015-Aug-24 06:31N 37°47' E 121°60'1311.7
2015-Aug-24 05:24N 37°50' E 121°44'1011.5
2015-Aug-24 04:33N 37°53' E 121°32'11110.9
2015-Aug-23 18:18N 38°11' E 119°12'  
Track history (hours):
 
Tides and Currents Weather Stations Pressure Air Temp Water Temp Dewpoint Dewpoint Depression Visibility Wind Speed Wind Dir Waves Ship Positions

Handytankers Miracle

Last reported at 2015-Sep-02 02:05 UTC. Time now 2015-Sep-02 23:53 UTC.
Position N 23°44' E 118°26'.

Length 183 m; draft 7.7 m.

Type: Tanker. MMSI: 538003114.

Date/timePositionNaut miles runAvg speedWind from/ knotsBaromVisibWave heightAir tempDewpointWater temp
2015-Sep-02 02:05N 23°44' E 118°26'1912.0
2015-Sep-02 00:31N 23°57' E 118°40'1712.2
2015-Sep-01 23:06N 24°10' E 118°54'913.0
2015-Sep-01 22:23N 24°16' E 119°01'3013.1
2015-Sep-01 20:07N 24°37' E 119°24'813.0
2015-Sep-01 19:30N 24°43' E 119°31'  
2015-Aug-27 04:14N 35°05' E 119°24'6 8.4
2015-Aug-27 03:33N 35°03' E 119°31'12 0.3
2015-Aug-25 05:28N 35°05' E 119°45'12112.2
2015-Aug-24 19:33N 36°01' E 121°57'1312.5
2015-Aug-24 18:31N 36°10' E 122°08'1212.4
2015-Aug-24 17:32N 36°19' E 122°20'2411.9
2015-Aug-24 15:33N 36°35' E 122°41'1311.7
2015-Aug-24 14:27N 36°45' E 122°51'1211.7
2015-Aug-24 13:23N 36°56' E 122°58'5310.7
2015-Aug-24 08:28N 37°43' E 122°29'1112.0
2015-Aug-24 07:33N 37°45' E 122°15'1211.7
2015-Aug-24 06:31N 37°47' E 121°60'1311.7
2015-Aug-24 05:24N 37°50' E 121°44'1011.5
2015-Aug-24 04:33N 37°53' E 121°32'11110.9
2015-Aug-23 18:18N 38°11' E 119°12'  

Dump ship's entire track history